Toquerville, Utah
Current Conditions -  °F | °C
As of 12:15 AM on Friday 31 Oct 2014 (Local Time) from KSGU Reporting Station
Clear Clear  
Wind Chill: 64°   Ceiling: Unl
Heat Index: 64°   Visibility: 10mi
Dew Point: 21°   Wind: 8mph
Humidity: 19%   Direction: 110°ESE
Pressure: 30.06"   Gusts: NA
Location:  37.25°N, 113.28°W
Report Text: KSGU 310615Z AUTO 11007KT 10SM CLR 18/M06 A3006 RMK AO1
Loading
Personal Weather Stations






























Interactive Weather Map
Tropical Storm Tracking
New forecast layout! Learn more

10-Day Weather Forecast

Advertisements
Track Severe Weather on mobile